Jordan Valley WCD
8215 S 1300 W, West Jordan
Last Weather Update:9/30/2011 11:00:00 AM
Date
ETo
ETc
Rain
Irrigation
Req
Temp
Max
Temp
Min
Temp
Avg
Avg RH
Avg Wind
Avg Solar
inches
inches
incehs
inches
F
F
F
%
%
watts/m2
9/1/2011 0.17" 0.12" 0.01" 0.11" 83.2° 51.1° 68.8° 46.0% 1.3 MPH 250.6w/m2
9/2/2011 0.16" 0.11" 0.00" 0.11" 81.9° 49.2° 65.8° 47.3% 0.8 MPH 249.2w/m2
9/3/2011 0.16" 0.11" 0.00" 0.11" 85.8° 45.6° 65.2° 44.7% 0.8 MPH 254.5w/m2
9/4/2011 0.16" 0.11" 0.00" 0.11" 90.5° 46.9° 67.6° 44.9% 0.7 MPH 251.2w/m2
9/5/2011 0.09" 0.06" 0.00" 0.06" 83.7° 52.1° 67.3° 50.3% 1.1 MPH 118.5w/m2
9/6/2011 0.16" 0.11" 0.00" 0.11" 80.9° 54.4° 69.2° 52.9% 1.9 MPH 220.8w/m2
9/7/2011 0.15" 0.10" 0.00" 0.10" 83.4° 49.9° 66.6° 55.0% 1.0 MPH 226.0w/m2
9/8/2011 0.15" 0.10" 0.00" 0.10" 84.3° 50.6° 66.7° 53.4% 0.9 MPH 223.5w/m2
9/9/2011 0.14" 0.09" 0.00" 0.09" 86.5° 51.4° 66.7° 54.1% 1.1 MPH 192.9w/m2
9/10/2011 0.15" 0.10" 0.00" 0.10" 84.1° 53.9° 66.9° 55.0% 1.6 MPH 217.9w/m2
9/11/2011 0.12" 0.08" 0.00" 0.08" 80.5° 53.3° 65.3° 57.7% 3.2 MPH 143.7w/m2
9/12/2011 0.15" 0.10" 0.00" 0.10" 81.0° 57.6° 66.6° 55.0% 3.9 MPH 202.5w/m2
9/13/2011 0.14" 0.09" 0.00" 0.09" 83.1° 51.9° 66.1° 51.0% 1.3 MPH 207.8w/m2
9/14/2011 0.13" 0.08" 0.00" 0.08" 83.7° 50.6° 65.2° 56.3% 1.8 MPH 187.0w/m2
9/15/2011 0.14" 0.09" 0.00" 0.09" 81.3° 56.6° 66.9° 55.0% 2.9 MPH 198.1w/m2
9/16/2011 0.08" 0.05" 0.16" -0.08" 73.4° 55.6° 61.7° 70.1% 4.3 MPH 89.3w/m2
9/17/2011 0.09" 0.06" 0.05" 0.02" 75.7° 51.6° 60.8° 69.9% 1.5 MPH 143.4w/m2
9/18/2011 0.11" 0.07" 0.00" 0.07" 79.6° 45.2° 61.0° 61.6% 0.5 MPH 189.3w/m2
9/19/2011 0.12" 0.08" 0.00" 0.08" 85.0° 46.8° 63.8° 55.0% 1.5 MPH 184.5w/m2
9/20/2011 0.11" 0.07" 0.00" 0.07" 80.4° 46.7° 62.7° 53.9% 0.7 MPH 184.3w/m2
9/21/2011 0.11" 0.07" 0.00" 0.07" 81.9° 45.2° 62.4° 56.0% 0.8 MPH 182.7w/m2
9/22/2011 0.12" 0.07" 0.00" 0.07" 83.9° 43.4° 61.8° 53.7% 0.9 MPH 182.4w/m2
9/23/2011 0.12" 0.07" 0.00" 0.07" 87.1° 45.0° 64.1° 46.8% 1.1 MPH 181.2w/m2
9/24/2011 0.12" 0.08" 0.00" 0.08" 88.6° 44.3° 63.7° 48.4% 1.2 MPH 186.9w/m2
9/25/2011 0.13" 0.08" 0.00" 0.08" 87.5° 48.3° 66.0° 45.4% 1.9 MPH 172.3w/m2
9/26/2011 0.11" 0.07" 0.00" 0.07" 81.7° 54.9° 68.5° 43.3% 1.3 MPH 163.1w/m2
9/27/2011 0.11" 0.07" 0.00" 0.07" 87.8° 46.2° 64.6° 55.7% 0.9 MPH 166.6w/m2
9/28/2011 0.11" 0.07" 0.00" 0.07" 88.9° 50.7° 67.1° 49.6% 0.9 MPH 164.7w/m2
9/29/2011 0.11" 0.06" 0.00" 0.06" 87.9° 47.4° 65.4° 51.5% 0.7 MPH 165.9w/m2
Totals: 3.70" 2.42" 0.22" 2.24" 90.5° 43.4° 65.3° 53.1% 1.5 MPH 189.7w/m2